sensor_id;sensor_type;location;lat;lon;timestamp;P1;durP1;ratioP1;P2;durP2;ratioP2
67749;SDS011;54550;48.838;8.828;2022-11-20T00:01:48;8.77;;;4.20;;
67749;SDS011;54550;48.838;8.828;2022-11-20T00:04:13;7.27;;;4.77;;
67749;SDS011;54550;48.838;8.828;2022-11-20T00:06:39;10.07;;;5.47;;
67749;SDS011;54550;48.838;8.828;2022-11-20T00:09:05;8.17;;;4.40;;
67749;SDS011;54550;48.838;8.828;2022-11-20T00:11:31;7.90;;;4.60;;
67749;SDS011;54550;48.838;8.828;2022-11-20T00:13:58;9.52;;;4.38;;
67749;SDS011;54550;48.838;8.828;2022-11-20T00:16:26;8.25;;;5.00;;
67749;SDS011;54550;48.838;8.828;2022-11-20T00:18:53;4.93;;;3.95;;
67749;SDS011;54550;48.838;8.828;2022-11-20T00:21:23;7.53;;;4.22;;
67749;SDS011;54550;48.838;8.828;2022-11-20T00:23:50;8.35;;;3.70;;
67749;SDS011;54550;48.838;8.828;2022-11-20T00:26:17;6.25;;;3.70;;
67749;SDS011;54550;48.838;8.828;2022-11-20T00:28:48;6.72;;;3.97;;
67749;SDS011;54550;48.838;8.828;2022-11-20T00:31:15;5.57;;;3.70;;
67749;SDS011;54550;48.838;8.828;2022-11-20T00:33:42;5.60;;;3.88;;
67749;SDS011;54550;48.838;8.828;2022-11-20T00:36:09;6.15;;;3.90;;
67749;SDS011;54550;48.838;8.828;2022-11-20T00:38:36;9.00;;;4.18;;
67749;SDS011;54550;48.838;8.828;2022-11-20T00:41:03;5.57;;;4.07;;
67749;SDS011;54550;48.838;8.828;2022-11-20T00:43:31;10.85;;;4.97;;
67749;SDS011;54550;48.838;8.828;2022-11-20T00:46:01;7.63;;;4.13;;
67749;SDS011;54550;48.838;8.828;2022-11-20T00:48:29;6.78;;;4.45;;
67749;SDS011;54550;48.838;8.828;2022-11-20T00:50:55;4.68;;;3.75;;
67749;SDS011;54550;48.838;8.828;2022-11-20T00:53:21;11.23;;;5.55;;
67749;SDS011;54550;48.838;8.828;2022-11-20T00:56:06;5.90;;;3.55;;
67749;SDS011;54550;48.838;8.828;2022-11-20T00:58:35;9.10;;;4.30;;
67749;SDS011;54550;48.838;8.828;2022-11-20T01:01:09;4.88;;;3.75;;
67749;SDS011;54550;48.838;8.828;2022-11-20T01:03:41;4.63;;;3.90;;
67749;SDS011;54550;48.838;8.828;2022-11-20T01:08:39;11.63;;;4.20;;
67749;SDS011;54550;48.838;8.828;2022-11-20T01:11:06;7.82;;;6.20;;
67749;SDS011;54550;48.838;8.828;2022-11-20T01:13:34;6.53;;;5.03;;
67749;SDS011;54550;48.838;8.828;2022-11-20T01:16:11;7.03;;;4.03;;
67749;SDS011;54550;48.838;8.828;2022-11-20T01:18:37;8.15;;;5.40;;
67749;SDS011;54550;48.838;8.828;2022-11-20T01:21:05;11.15;;;4.80;;
67749;SDS011;54550;48.838;8.828;2022-11-20T01:23:33;16.20;;;4.72;;
67749;SDS011;54550;48.838;8.828;2022-11-20T01:26:01;7.25;;;4.20;;
67749;SDS011;54550;48.838;8.828;2022-11-20T01:28:28;4.30;;;3.50;;
67749;SDS011;54550;48.838;8.828;2022-11-20T01:30:54;7.80;;;4.57;;
67749;SDS011;54550;48.838;8.828;2022-11-20T01:33:20;3.70;;;3.17;;
67749;SDS011;54550;48.838;8.828;2022-11-20T01:35:45;9.17;;;4.50;;
67749;SDS011;54550;48.838;8.828;2022-11-20T01:38:11;8.80;;;3.87;;
67749;SDS011;54550;48.838;8.828;2022-11-20T01:40:36;4.30;;;3.50;;
67749;SDS011;54550;48.838;8.828;2022-11-20T01:43:18;6.23;;;4.50;;
67749;SDS011;54550;48.838;8.828;2022-11-20T01:48:37;4.57;;;3.58;;
67749;SDS011;54550;48.838;8.828;2022-11-20T01:54:07;9.52;;;4.72;;
67749;SDS011;54550;48.838;8.828;2022-11-20T01:56:40;3.85;;;3.33;;
67749;SDS011;54550;48.838;8.828;2022-11-20T01:59:09;3.67;;;3.30;;
67749;SDS011;54550;48.838;8.828;2022-11-20T02:01:37;4.28;;;3.33;;
67749;SDS011;54550;48.838;8.828;2022-11-20T02:04:04;11.18;;;3.25;;
67749;SDS011;54550;48.838;8.828;2022-11-20T02:06:32;7.60;;;4.00;;
67749;SDS011;54550;48.838;8.828;2022-11-20T02:09:03;10.98;;;4.10;;
67749;SDS011;54550;48.838;8.828;2022-11-20T02:11:29;5.43;;;4.10;;
67749;SDS011;54550;48.838;8.828;2022-11-20T02:13:56;6.35;;;4.50;;
67749;SDS011;54550;48.838;8.828;2022-11-20T02:16:27;8.55;;;4.53;;
67749;SDS011;54550;48.838;8.828;2022-11-20T02:19:02;5.50;;;3.78;;
67749;SDS011;54550;48.838;8.828;2022-11-20T02:21:40;3.83;;;3.38;;
67749;SDS011;54550;48.838;8.828;2022-11-20T02:24:14;3.47;;;3.17;;
67749;SDS011;54550;48.838;8.828;2022-11-20T02:26:46;5.10;;;2.78;;
67749;SDS011;54550;48.838;8.828;2022-11-20T02:29:42;4.40;;;3.13;;
67749;SDS011;54550;48.838;8.828;2022-11-20T02:32:23;3.33;;;2.97;;
67749;SDS011;54550;48.838;8.828;2022-11-20T02:34:54;5.15;;;2.85;;
67749;SDS011;54550;48.838;8.828;2022-11-20T02:37:20;4.67;;;2.70;;
67749;SDS011;54550;48.838;8.828;2022-11-20T02:39:46;2.50;;;2.30;;
67749;SDS011;54550;48.838;8.828;2022-11-20T02:42:13;3.67;;;2.70;;
67749;SDS011;54550;48.838;8.828;2022-11-20T02:44:39;3.77;;;2.27;;
67749;SDS011;54550;48.838;8.828;2022-11-20T02:47:05;3.83;;;1.87;;
67749;SDS011;54550;48.838;8.828;2022-11-20T02:49:30;4.40;;;2.33;;
67749;SDS011;54550;48.838;8.828;2022-11-20T02:51:56;3.23;;;2.10;;
67749;SDS011;54550;48.838;8.828;2022-11-20T02:54:22;3.00;;;2.40;;
67749;SDS011;54550;48.838;8.828;2022-11-20T02:56:48;3.45;;;2.53;;
67749;SDS011;54550;48.838;8.828;2022-11-20T02:59:13;4.43;;;3.13;;
67749;SDS011;54550;48.838;8.828;2022-11-20T03:01:39;3.30;;;2.60;;
67749;SDS011;54550;48.838;8.828;2022-11-20T03:04:04;6.37;;;3.07;;
67749;SDS011;54550;48.838;8.828;2022-11-20T03:06:30;2.77;;;2.53;;
67749;SDS011;54550;48.838;8.828;2022-11-20T03:08:56;3.60;;;2.70;;
67749;SDS011;54550;48.838;8.828;2022-11-20T03:11:22;6.07;;;2.63;;
67749;SDS011;54550;48.838;8.828;2022-11-20T03:13:47;5.23;;;3.10;;
67749;SDS011;54550;48.838;8.828;2022-11-20T03:16:14;4.07;;;2.73;;
67749;SDS011;54550;48.838;8.828;2022-11-20T03:18:41;4.15;;;2.90;;
67749;SDS011;54550;48.838;8.828;2022-11-20T03:21:08;6.00;;;3.05;;
67749;SDS011;54550;48.838;8.828;2022-11-20T03:23:35;5.05;;;3.65;;
67749;SDS011;54550;48.838;8.828;2022-11-20T03:26:11;4.25;;;3.17;;
67749;SDS011;54550;48.838;8.828;2022-11-20T03:28:39;10.38;;;3.80;;
67749;SDS011;54550;48.838;8.828;2022-11-20T03:31:06;4.15;;;3.28;;
67749;SDS011;54550;48.838;8.828;2022-11-20T03:33:33;5.82;;;3.85;;
67749;SDS011;54550;48.838;8.828;2022-11-20T03:36:03;6.63;;;3.93;;
67749;SDS011;54550;48.838;8.828;2022-11-20T03:38:30;7.05;;;4.32;;
67749;SDS011;54550;48.838;8.828;2022-11-20T03:41:03;19.45;;;4.30;;
67749;SDS011;54550;48.838;8.828;2022-11-20T03:43:33;4.40;;;4.00;;
67749;SDS011;54550;48.838;8.828;2022-11-20T03:45:59;13.10;;;3.63;;
67749;SDS011;54550;48.838;8.828;2022-11-20T03:48:25;6.80;;;4.23;;
67749;SDS011;54550;48.838;8.828;2022-11-20T03:50:51;6.35;;;4.00;;
67749;SDS011;54550;48.838;8.828;2022-11-20T03:53:17;9.15;;;4.68;;
67749;SDS011;54550;48.838;8.828;2022-11-20T03:55:44;3.63;;;3.33;;
67749;SDS011;54550;48.838;8.828;2022-11-20T03:58:09;5.53;;;4.47;;
67749;SDS011;54550;48.838;8.828;2022-11-20T04:00:35;15.63;;;5.30;;
67749;SDS011;54550;48.838;8.828;2022-11-20T04:03:01;6.63;;;5.90;;
67749;SDS011;54550;48.838;8.828;2022-11-20T04:05:27;9.73;;;5.63;;
67749;SDS011;54550;48.838;8.828;2022-11-20T04:07:53;5.90;;;4.90;;
67749;SDS011;54550;48.838;8.828;2022-11-20T04:10:19;11.37;;;7.70;;
67749;SDS011;54550;48.838;8.828;2022-11-20T04:12:45;9.03;;;4.80;;
67749;SDS011;54550;48.838;8.828;2022-11-20T04:15:10;4.70;;;3.77;;
67749;SDS011;54550;48.838;8.828;2022-11-20T04:17:36;5.77;;;5.23;;
67749;SDS011;54550;48.838;8.828;2022-11-20T04:20:01;4.70;;;3.10;;
67749;SDS011;54550;48.838;8.828;2022-11-20T04:22:27;3.53;;;3.23;;
67749;SDS011;54550;48.838;8.828;2022-11-20T04:24:53;4.00;;;2.70;;
67749;SDS011;54550;48.838;8.828;2022-11-20T04:27:18;3.70;;;3.00;;
67749;SDS011;54550;48.838;8.828;2022-11-20T04:29:45;3.15;;;2.15;;
67749;SDS011;54550;48.838;8.828;2022-11-20T04:32:10;6.80;;;2.30;;
67749;SDS011;54550;48.838;8.828;2022-11-20T04:34:36;4.73;;;2.03;;
67749;SDS011;54550;48.838;8.828;2022-11-20T04:37:02;3.70;;;2.60;;
67749;SDS011;54550;48.838;8.828;2022-11-20T04:39:27;3.30;;;1.80;;
67749;SDS011;54550;48.838;8.828;2022-11-20T04:41:53;2.43;;;2.23;;
67749;SDS011;54550;48.838;8.828;2022-11-20T04:44:38;5.95;;;2.65;;
67749;SDS011;54550;48.838;8.828;2022-11-20T04:47:04;4.43;;;2.90;;
67749;SDS011;54550;48.838;8.828;2022-11-20T04:49:30;5.00;;;3.10;;
67749;SDS011;54550;48.838;8.828;2022-11-20T04:51:56;3.83;;;2.30;;
67749;SDS011;54550;48.838;8.828;2022-11-20T04:54:22;2.00;;;1.80;;
67749;SDS011;54550;48.838;8.828;2022-11-20T04:56:48;2.40;;;1.93;;
67749;SDS011;54550;48.838;8.828;2022-11-20T04:59:13;5.53;;;2.60;;
67749;SDS011;54550;48.838;8.828;2022-11-20T05:01:39;3.50;;;3.20;;
67749;SDS011;54550;48.838;8.828;2022-11-20T05:04:05;2.87;;;2.30;;
67749;SDS011;54550;48.838;8.828;2022-11-20T05:06:31;3.33;;;2.13;;
67749;SDS011;54550;48.838;8.828;2022-11-20T05:08:57;2.30;;;2.10;;
67749;SDS011;54550;48.838;8.828;2022-11-20T05:11:23;2.75;;;2.30;;
67749;SDS011;54550;48.838;8.828;2022-11-20T05:13:50;2.00;;;1.90;;
67749;SDS011;54550;48.838;8.828;2022-11-20T05:16:20;2.38;;;1.75;;
67749;SDS011;54550;48.838;8.828;2022-11-20T05:18:47;5.88;;;2.33;;
67749;SDS011;54550;48.838;8.828;2022-11-20T05:21:13;3.38;;;2.30;;
67749;SDS011;54550;48.838;8.828;2022-11-20T05:23:40;8.93;;;2.40;;
67749;SDS011;54550;48.838;8.828;2022-11-20T05:26:07;2.17;;;1.98;;
67749;SDS011;54550;48.838;8.828;2022-11-20T05:28:37;4.35;;;2.00;;
67749;SDS011;54550;48.838;8.828;2022-11-20T05:31:09;4.53;;;2.53;;
67749;SDS011;54550;48.838;8.828;2022-11-20T05:33:41;4.43;;;2.95;;
67749;SDS011;54550;48.838;8.828;2022-11-20T05:36:08;4.93;;;2.47;;
67749;SDS011;54550;48.838;8.828;2022-11-20T05:38:34;5.97;;;2.13;;
67749;SDS011;54550;48.838;8.828;2022-11-20T05:41:07;2.30;;;2.10;;
67749;SDS011;54550;48.838;8.828;2022-11-20T05:43:37;1.98;;;1.60;;
67749;SDS011;54550;48.838;8.828;2022-11-20T05:46:05;2.35;;;1.30;;
67749;SDS011;54550;48.838;8.828;2022-11-20T05:48:32;2.90;;;1.95;;
67749;SDS011;54550;48.838;8.828;2022-11-20T05:50:59;1.35;;;1.25;;
67749;SDS011;54550;48.838;8.828;2022-11-20T05:53:26;3.17;;;1.42;;
67749;SDS011;54550;48.838;8.828;2022-11-20T05:55:58;3.03;;;1.30;;
67749;SDS011;54550;48.838;8.828;2022-11-20T05:58:25;2.00;;;1.20;;
67749;SDS011;54550;48.838;8.828;2022-11-20T06:00:51;3.92;;;1.30;;
67749;SDS011;54550;48.838;8.828;2022-11-20T06:03:16;1.53;;;1.43;;
67749;SDS011;54550;48.838;8.828;2022-11-20T06:05:42;2.13;;;1.30;;
67749;SDS011;54550;48.838;8.828;2022-11-20T06:08:07;1.70;;;1.07;;
67749;SDS011;54550;48.838;8.828;2022-11-20T06:10:33;5.90;;;0.97;;
67749;SDS011;54550;48.838;8.828;2022-11-20T06:12:59;2.50;;;1.30;;
67749;SDS011;54550;48.838;8.828;2022-11-20T06:15:24;1.00;;;0.90;;
67749;SDS011;54550;48.838;8.828;2022-11-20T06:17:53;2.17;;;0.93;;
67749;SDS011;54550;48.838;8.828;2022-11-20T06:20:20;1.33;;;1.05;;
67749;SDS011;54550;48.838;8.828;2022-11-20T06:22:46;1.25;;;0.90;;
67749;SDS011;54550;48.838;8.828;2022-11-20T06:25:12;1.93;;;0.90;;
67749;SDS011;54550;48.838;8.828;2022-11-20T06:27:38;1.50;;;1.30;;
67749;SDS011;54550;48.838;8.828;2022-11-20T06:30:04;1.70;;;1.60;;
67749;SDS011;54550;48.838;8.828;2022-11-20T06:32:30;2.15;;;1.55;;
67749;SDS011;54550;48.838;8.828;2022-11-20T06:34:56;2.30;;;1.37;;
67749;SDS011;54550;48.838;8.828;2022-11-20T06:37:21;2.80;;;1.50;;
67749;SDS011;54550;48.838;8.828;2022-11-20T06:39:47;2.80;;;1.53;;
67749;SDS011;54550;48.838;8.828;2022-11-20T06:42:12;3.93;;;1.20;;
67749;SDS011;54550;48.838;8.828;2022-11-20T06:44:38;1.47;;;0.93;;
67749;SDS011;54550;48.838;8.828;2022-11-20T06:47:03;1.60;;;1.50;;
67749;SDS011;54550;48.838;8.828;2022-11-20T06:49:29;13.50;;;2.17;;
67749;SDS011;54550;48.838;8.828;2022-11-20T06:51:55;1.47;;;1.20;;
67749;SDS011;54550;48.838;8.828;2022-11-20T06:54:20;1.40;;;1.00;;
67749;SDS011;54550;48.838;8.828;2022-11-20T06:56:46;1.90;;;1.60;;
67749;SDS011;54550;48.838;8.828;2022-11-20T06:59:14;6.10;;;2.00;;
67749;SDS011;54550;48.838;8.828;2022-11-20T07:01:39;10.47;;;5.30;;
67749;SDS011;54550;48.838;8.828;2022-11-20T07:04:05;1.57;;;1.47;;
67749;SDS011;54550;48.838;8.828;2022-11-20T07:06:31;1.70;;;1.60;;
67749;SDS011;54550;48.838;8.828;2022-11-20T07:08:56;2.00;;;1.60;;
67749;SDS011;54550;48.838;8.828;2022-11-20T07:11:22;2.83;;;1.00;;
67749;SDS011;54550;48.838;8.828;2022-11-20T07:13:48;2.33;;;1.83;;
67749;SDS011;54550;48.838;8.828;2022-11-20T07:16:14;1.92;;;1.08;;
67749;SDS011;54550;48.838;8.828;2022-11-20T07:18:40;3.93;;;2.00;;
67749;SDS011;54550;48.838;8.828;2022-11-20T07:21:06;1.43;;;1.10;;
67749;SDS011;54550;48.838;8.828;2022-11-20T07:23:33;3.60;;;1.65;;
67749;SDS011;54550;48.838;8.828;2022-11-20T07:26:06;2.70;;;1.10;;
67749;SDS011;54550;48.838;8.828;2022-11-20T07:28:33;0.80;;;0.70;;
67749;SDS011;54550;48.838;8.828;2022-11-20T07:30:59;1.97;;;1.00;;
67749;SDS011;54550;48.838;8.828;2022-11-20T07:33:24;1.40;;;0.90;;
67749;SDS011;54550;48.838;8.828;2022-11-20T07:35:50;0.90;;;0.73;;
67749;SDS011;54550;48.838;8.828;2022-11-20T07:38:16;2.23;;;1.03;;
67749;SDS011;54550;48.838;8.828;2022-11-20T07:40:41;1.70;;;0.93;;
67749;SDS011;54550;48.838;8.828;2022-11-20T07:43:07;0.97;;;0.73;;
67749;SDS011;54550;48.838;8.828;2022-11-20T07:45:33;1.90;;;1.10;;
67749;SDS011;54550;48.838;8.828;2022-11-20T07:47:58;1.40;;;0.90;;
67749;SDS011;54550;48.838;8.828;2022-11-20T07:50:24;4.20;;;1.43;;
67749;SDS011;54550;48.838;8.828;2022-11-20T07:52:49;2.83;;;1.03;;
67749;SDS011;54550;48.838;8.828;2022-11-20T07:55:15;2.80;;;0.80;;
67749;SDS011;54550;48.838;8.828;2022-11-20T07:57:41;1.47;;;0.60;;
67749;SDS011;54550;48.838;8.828;2022-11-20T08:00:07;1.03;;;0.90;;
67749;SDS011;54550;48.838;8.828;2022-11-20T08:02:39;1.17;;;0.82;;
67749;SDS011;54550;48.838;8.828;2022-11-20T08:05:05;1.23;;;1.00;;
67749;SDS011;54550;48.838;8.828;2022-11-20T08:07:38;5.97;;;0.70;;
67749;SDS011;54550;48.838;8.828;2022-11-20T08:10:05;2.70;;;1.40;;
67749;SDS011;54550;48.838;8.828;2022-11-20T08:12:32;2.85;;;1.20;;
67749;SDS011;54550;48.838;8.828;2022-11-20T08:15:16;1.80;;;0.85;;
67749;SDS011;54550;48.838;8.828;2022-11-20T08:17:42;3.17;;;1.60;;
67749;SDS011;54550;48.838;8.828;2022-11-20T08:20:07;1.60;;;1.40;;
67749;SDS011;54550;48.838;8.828;2022-11-20T08:22:34;3.83;;;1.45;;
67749;SDS011;54550;48.838;8.828;2022-11-20T08:24:59;2.27;;;1.40;;
67749;SDS011;54550;48.838;8.828;2022-11-20T08:27:25;1.90;;;1.07;;
67749;SDS011;54550;48.838;8.828;2022-11-20T08:29:51;1.73;;;1.40;;
67749;SDS011;54550;48.838;8.828;2022-11-20T08:32:16;1.10;;;1.00;;
67749;SDS011;54550;48.838;8.828;2022-11-20T08:34:42;1.10;;;0.70;;
67749;SDS011;54550;48.838;8.828;2022-11-20T08:37:07;2.07;;;1.40;;
67749;SDS011;54550;48.838;8.828;2022-11-20T08:39:33;2.03;;;1.00;;
67749;SDS011;54550;48.838;8.828;2022-11-20T08:41:58;1.30;;;1.00;;
67749;SDS011;54550;48.838;8.828;2022-11-20T08:44:24;1.00;;;0.80;;
67749;SDS011;54550;48.838;8.828;2022-11-20T08:46:50;1.50;;;1.33;;
67749;SDS011;54550;48.838;8.828;2022-11-20T08:49:16;1.00;;;0.90;;
67749;SDS011;54550;48.838;8.828;2022-11-20T08:51:42;6.63;;;0.80;;
67749;SDS011;54550;48.838;8.828;2022-11-20T08:54:08;0.90;;;0.70;;
67749;SDS011;54550;48.838;8.828;2022-11-20T08:56:34;1.00;;;0.77;;
67749;SDS011;54550;48.838;8.828;2022-11-20T08:59:00;1.10;;;0.80;;
67749;SDS011;54550;48.838;8.828;2022-11-20T09:01:26;1.40;;;1.30;;
67749;SDS011;54550;48.838;8.828;2022-11-20T09:03:57;1.35;;;1.25;;
67749;SDS011;54550;48.838;8.828;2022-11-20T09:06:24;1.83;;;1.35;;
67749;SDS011;54550;48.838;8.828;2022-11-20T09:08:52;1.40;;;1.15;;
67749;SDS011;54550;48.838;8.828;2022-11-20T09:11:18;1.38;;;0.95;;
67749;SDS011;54550;48.838;8.828;2022-11-20T09:13:44;4.73;;;1.60;;
67749;SDS011;54550;48.838;8.828;2022-11-20T09:16:10;4.20;;;2.20;;
67749;SDS011;54550;48.838;8.828;2022-11-20T09:18:35;1.70;;;1.60;;
67749;SDS011;54550;48.838;8.828;2022-11-20T09:21:03;4.20;;;1.77;;
67749;SDS011;54550;48.838;8.828;2022-11-20T09:23:35;4.57;;;3.80;;
67749;SDS011;54550;48.838;8.828;2022-11-20T09:26:05;2.72;;;2.53;;
67749;SDS011;54550;48.838;8.828;2022-11-20T09:28:34;2.92;;;2.28;;
67749;SDS011;54550;48.838;8.828;2022-11-20T09:30:59;6.03;;;3.83;;
67749;SDS011;54550;48.838;8.828;2022-11-20T09:33:26;3.42;;;2.67;;
67749;SDS011;54550;48.838;8.828;2022-11-20T09:35:51;24.15;;;10.50;;
67749;SDS011;54550;48.838;8.828;2022-11-20T09:38:17;5.57;;;4.13;;
67749;SDS011;54550;48.838;8.828;2022-11-20T09:41:02;7.67;;;4.60;;
67749;SDS011;54550;48.838;8.828;2022-11-20T09:46:29;5.40;;;4.93;;
67749;SDS011;54550;48.838;8.828;2022-11-20T09:53:27;2.60;;;2.40;;
67749;SDS011;54550;48.838;8.828;2022-11-20T09:55:36;4.35;;;2.65;;
67749;SDS011;54550;48.838;8.828;2022-11-20T09:58:04;2.50;;;2.20;;
67749;SDS011;54550;48.838;8.828;2022-11-20T10:00:32;2.42;;;1.88;;
67749;SDS011;54550;48.838;8.828;2022-11-20T10:05:40;3.53;;;3.25;;
67749;SDS011;54550;48.838;8.828;2022-11-20T10:08:34;5.13;;;2.28;;
67749;SDS011;54550;48.838;8.828;2022-11-20T10:11:11;1.70;;;1.60;;
67749;SDS011;54550;48.838;8.828;2022-11-20T10:14:07;1.88;;;1.75;;
67749;SDS011;54550;48.838;8.828;2022-11-20T10:17:06;1.98;;;1.80;;
67749;SDS011;54550;48.838;8.828;2022-11-20T10:25:22;7.00;;;3.90;;
67749;SDS011;54550;48.838;8.828;2022-11-20T10:30:50;6.00;;;5.43;;
67749;SDS011;54550;48.838;8.828;2022-11-20T10:33:22;6.57;;;5.40;;
67749;SDS011;54550;48.838;8.828;2022-11-20T10:40:51;3.55;;;3.25;;
67749;SDS011;54550;48.838;8.828;2022-11-20T10:43:41;3.10;;;2.90;;
67749;SDS011;54550;48.838;8.828;2022-11-20T10:46:14;6.13;;;3.90;;
67749;SDS011;54550;48.838;8.828;2022-11-20T10:48:43;3.67;;;2.03;;
67749;SDS011;54550;48.838;8.828;2022-11-20T10:54:12;3.38;;;3.08;;
67749;SDS011;54550;48.838;8.828;2022-11-20T10:56:59;5.93;;;5.43;;
67749;SDS011;54550;48.838;8.828;2022-11-20T11:02:21;5.25;;;4.45;;
67749;SDS011;54550;48.838;8.828;2022-11-20T11:04:52;10.50;;;3.70;;
67749;SDS011;54550;48.838;8.828;2022-11-20T11:10:00;4.47;;;2.90;;
67749;SDS011;54550;48.838;8.828;2022-11-20T11:12:27;14.33;;;2.70;;
67749;SDS011;54550;48.838;8.828;2022-11-20T11:14:54;5.78;;;1.90;;
67749;SDS011;54550;48.838;8.828;2022-11-20T11:22:43;2.50;;;2.30;;
67749;SDS011;54550;48.838;8.828;2022-11-20T11:25:27;4.15;;;2.03;;
67749;SDS011;54550;48.838;8.828;2022-11-20T11:30:42;3.83;;;1.42;;
67749;SDS011;54550;48.838;8.828;2022-11-20T11:33:10;7.07;;;1.63;;
67749;SDS011;54550;48.838;8.828;2022-11-20T11:35:47;2.30;;;1.75;;
67749;SDS011;54550;48.838;8.828;2022-11-20T11:38:16;6.25;;;1.80;;
67749;SDS011;54550;48.838;8.828;2022-11-20T11:40:46;5.30;;;1.80;;
67749;SDS011;54550;48.838;8.828;2022-11-20T11:43:31;19.00;;;1.93;;
67749;SDS011;54550;48.838;8.828;2022-11-20T11:46:28;3.92;;;1.45;;
67749;SDS011;54550;48.838;8.828;2022-11-20T11:48:59;2.47;;;1.15;;
67749;SDS011;54550;48.838;8.828;2022-11-20T11:51:31;1.65;;;1.30;;
67749;SDS011;54550;48.838;8.828;2022-11-20T11:54:01;3.90;;;1.50;;
67749;SDS011;54550;48.838;8.828;2022-11-20T11:56:30;5.15;;;1.15;;
67749;SDS011;54550;48.838;8.828;2022-11-20T11:58:58;3.55;;;1.20;;
67749;SDS011;54550;48.838;8.828;2022-11-20T12:01:31;2.10;;;1.30;;
67749;SDS011;54550;48.838;8.828;2022-11-20T12:07:13;5.10;;;1.02;;
67749;SDS011;54550;48.838;8.828;2022-11-20T12:09:48;1.55;;;1.00;;
67749;SDS011;54550;48.838;8.828;2022-11-20T12:12:22;4.30;;;0.93;;
67749;SDS011;54550;48.838;8.828;2022-11-20T12:14:54;5.15;;;3.15;;
67749;SDS011;54550;48.838;8.828;2022-11-20T12:17:21;1.08;;;0.90;;
67749;SDS011;54550;48.838;8.828;2022-11-20T12:19:46;1.50;;;1.27;;
67749;SDS011;54550;48.838;8.828;2022-11-20T12:22:23;4.03;;;1.20;;
67749;SDS011;54550;48.838;8.828;2022-11-20T12:30:19;5.65;;;1.10;;
67749;SDS011;54550;48.838;8.828;2022-11-20T12:33:02;1.85;;;1.33;;
67749;SDS011;54550;48.838;8.828;2022-11-20T12:38:31;4.45;;;1.30;;
67749;SDS011;54550;48.838;8.828;2022-11-20T12:41:35;7.07;;;1.48;;
67749;SDS011;54550;48.838;8.828;2022-11-20T12:47:59;3.53;;;0.70;;
67749;SDS011;54550;48.838;8.828;2022-11-20T13:00:16;8.32;;;1.30;;
67749;SDS011;54550;48.838;8.828;2022-11-20T13:08:24;1.85;;;0.95;;
67749;SDS011;54550;48.838;8.828;2022-11-20T13:16:45;3.45;;;0.85;;
67749;SDS011;54550;48.838;8.828;2022-11-20T13:19:18;4.05;;;1.45;;
67749;SDS011;54550;48.838;8.828;2022-11-20T13:21:46;3.80;;;1.27;;
67749;SDS011;54550;48.838;8.828;2022-11-20T13:29:25;7.47;;;1.10;;
67749;SDS011;54550;48.838;8.828;2022-11-20T13:32:00;1.95;;;1.10;;
67749;SDS011;54550;48.838;8.828;2022-11-20T13:34:51;3.28;;;1.35;;
67749;SDS011;54550;48.838;8.828;2022-11-20T13:37:33;1.77;;;0.90;;
67749;SDS011;54550;48.838;8.828;2022-11-20T13:40:50;7.55;;;1.23;;
67749;SDS011;54550;48.838;8.828;2022-11-20T13:45:28;1.90;;;1.25;;
67749;SDS011;54550;48.838;8.828;2022-11-20T13:47:56;2.20;;;0.90;;
67749;SDS011;54550;48.838;8.828;2022-11-20T13:50:37;2.78;;;0.90;;
67749;SDS011;54550;48.838;8.828;2022-11-20T13:53:13;5.05;;;1.52;;
67749;SDS011;54550;48.838;8.828;2022-11-20T13:56:08;3.80;;;1.25;;
67749;SDS011;54550;48.838;8.828;2022-11-20T13:58:56;3.92;;;1.65;;
67749;SDS011;54550;48.838;8.828;2022-11-20T14:01:30;7.60;;;2.22;;
67749;SDS011;54550;48.838;8.828;2022-11-20T14:03:57;2.20;;;1.60;;
67749;SDS011;54550;48.838;8.828;2022-11-20T14:06:30;3.40;;;1.35;;
67749;SDS011;54550;48.838;8.828;2022-11-20T14:08:59;8.98;;;2.22;;
67749;SDS011;54550;48.838;8.828;2022-11-20T14:11:26;5.93;;;1.43;;
67749;SDS011;54550;48.838;8.828;2022-11-20T14:14:03;2.55;;;1.33;;
67749;SDS011;54550;48.838;8.828;2022-11-20T14:16:40;4.18;;;1.30;;
67749;SDS011;54550;48.838;8.828;2022-11-20T14:19:25;4.77;;;1.33;;
67749;SDS011;54550;48.838;8.828;2022-11-20T14:22:07;14.20;;;1.42;;
67749;SDS011;54550;48.838;8.828;2022-11-20T14:24:48;9.00;;;1.38;;
67749;SDS011;54550;48.838;8.828;2022-11-20T14:27:25;5.30;;;1.30;;
67749;SDS011;54550;48.838;8.828;2022-11-20T14:29:50;1.90;;;1.17;;
67749;SDS011;54550;48.838;8.828;2022-11-20T14:32:17;2.30;;;1.00;;
67749;SDS011;54550;48.838;8.828;2022-11-20T14:34:46;9.18;;;1.33;;
67749;SDS011;54550;48.838;8.828;2022-11-20T14:37:22;6.68;;;1.90;;
67749;SDS011;54550;48.838;8.828;2022-11-20T14:39:51;2.35;;;1.25;;
67749;SDS011;54550;48.838;8.828;2022-11-20T14:42:20;3.10;;;1.05;;
67749;SDS011;54550;48.838;8.828;2022-11-20T14:44:48;9.02;;;1.55;;
67749;SDS011;54550;48.838;8.828;2022-11-20T14:47:17;1.23;;;1.10;;
67749;SDS011;54550;48.838;8.828;2022-11-20T14:49:46;5.50;;;1.02;;
67749;SDS011;54550;48.838;8.828;2022-11-20T14:52:16;1.35;;;1.00;;
67749;SDS011;54550;48.838;8.828;2022-11-20T14:54:51;5.35;;;0.90;;
67749;SDS011;54550;48.838;8.828;2022-11-20T14:57:26;2.60;;;0.88;;
67749;SDS011;54550;48.838;8.828;2022-11-20T15:02:41;4.45;;;0.98;;
67749;SDS011;54550;48.838;8.828;2022-11-20T15:05:08;6.28;;;1.33;;
67749;SDS011;54550;48.838;8.828;2022-11-20T15:07:38;2.30;;;1.30;;
67749;SDS011;54550;48.838;8.828;2022-11-20T15:10:11;4.13;;;1.80;;
67749;SDS011;54550;48.838;8.828;2022-11-20T15:12:48;4.05;;;2.10;;
67749;SDS011;54550;48.838;8.828;2022-11-20T15:15:25;4.50;;;1.65;;
67749;SDS011;54550;48.838;8.828;2022-11-20T15:18:01;3.72;;;1.23;;
67749;SDS011;54550;48.838;8.828;2022-11-20T15:20:29;1.80;;;1.02;;
67749;SDS011;54550;48.838;8.828;2022-11-20T15:23:00;2.95;;;1.42;;
67749;SDS011;54550;48.838;8.828;2022-11-20T15:25:26;4.03;;;2.00;;
67749;SDS011;54550;48.838;8.828;2022-11-20T15:27:53;2.07;;;1.50;;
67749;SDS011;54550;48.838;8.828;2022-11-20T15:30:20;11.80;;;3.75;;
67749;SDS011;54550;48.838;8.828;2022-11-20T15:32:46;3.63;;;1.70;;
67749;SDS011;54550;48.838;8.828;2022-11-20T15:35:13;7.70;;;2.75;;
67749;SDS011;54550;48.838;8.828;2022-11-20T15:37:39;2.00;;;1.60;;
67749;SDS011;54550;48.838;8.828;2022-11-20T15:40:06;5.60;;;1.40;;
67749;SDS011;54550;48.838;8.828;2022-11-20T15:42:33;5.90;;;2.65;;
67749;SDS011;54550;48.838;8.828;2022-11-20T15:44:59;7.65;;;1.30;;
67749;SDS011;54550;48.838;8.828;2022-11-20T15:47:25;2.85;;;2.17;;
67749;SDS011;54550;48.838;8.828;2022-11-20T15:49:54;4.45;;;2.28;;
67749;SDS011;54550;48.838;8.828;2022-11-20T15:52:20;4.00;;;2.00;;
67749;SDS011;54550;48.838;8.828;2022-11-20T15:54:46;2.43;;;1.70;;
67749;SDS011;54550;48.838;8.828;2022-11-20T15:57:11;6.20;;;2.00;;
67749;SDS011;54550;48.838;8.828;2022-11-20T15:59:38;4.20;;;1.90;;
67749;SDS011;54550;48.838;8.828;2022-11-20T16:02:09;7.97;;;3.30;;
67749;SDS011;54550;48.838;8.828;2022-11-20T16:04:39;3.38;;;2.88;;
67749;SDS011;54550;48.838;8.828;2022-11-20T16:07:04;7.87;;;3.70;;
67749;SDS011;54550;48.838;8.828;2022-11-20T16:09:30;4.70;;;3.77;;
67749;SDS011;54550;48.838;8.828;2022-11-20T16:11:56;8.03;;;3.70;;
67749;SDS011;54550;48.838;8.828;2022-11-20T16:14:24;21.73;;;7.20;;
67749;SDS011;54550;48.838;8.828;2022-11-20T16:17:09;30.83;;;12.07;;
67749;SDS011;54550;48.838;8.828;2022-11-20T16:19:34;31.87;;;11.23;;
67749;SDS011;54550;48.838;8.828;2022-11-20T16:22:00;31.53;;;10.90;;
67749;SDS011;54550;48.838;8.828;2022-11-20T16:24:26;33.30;;;10.75;;
67749;SDS011;54550;48.838;8.828;2022-11-20T16:26:55;8.67;;;3.90;;
67749;SDS011;54550;48.838;8.828;2022-11-20T16:29:21;9.23;;;4.88;;
67749;SDS011;54550;48.838;8.828;2022-11-20T16:31:47;8.70;;;4.87;;
67749;SDS011;54550;48.838;8.828;2022-11-20T16:34:15;20.20;;;6.97;;